Flight Track Log - Related Links

Times and Time Zones

All times are in EST time to prevent confusion due to time zone crossing. See the WAV430 flight status page for this flight to view local times or setup timezone preferences in your user account.

Time Position Orientation Groundspeed Altitude Reporting Facility
EST Latitude Longitude Course Direction KTS MPH feet Rate Location/Type
Fri 12:52:09 AM 64.7500 -156.2500 90° East 110 127 6,600  Level Anchorage Center
Fri 12:53:10 AM 64.7500 -156.1667 60° Northeast 150 173 7,400 694 Climbing Anchorage Center
Fri 12:54:10 AM 64.7667 -156.1000 90° East 120 138 8,000 600 Climbing Anchorage Center
Fri 12:55:10 AM 64.7667 -156.0167 90° East 120 138 8,600 545 Climbing Anchorage Center
Fri 12:56:11 AM 64.7667 -155.9333 90° East 100 115 9,100 496 Climbing Anchorage Center
Fri 12:57:11 AM 64.7667 -155.8500 90° East 130 150 9,600 545 Climbing Anchorage Center
Fri 12:58:12 AM 64.7667 -155.7667 90° East 140 161 10,200 694 Climbing Anchorage Center
Fri 12:59:12 AM 64.7667 -155.6833 90° East 130 150 11,000 400 Climbing Anchorage Center
Fri 01:00:12 AM 64.7667 -155.5833 69° East 120 138 11,000  Level Anchorage Center
Fri 01:01:13 AM 64.7833 -155.4833 90° East 150 173 11,000  Level Anchorage Center
Fri 01:02:13 AM 64.7833 -155.3833 90° East 150 173 11,000  Level Anchorage Center
Fri 01:03:14 AM 64.7833 -155.2833 90° East 150 173 11,000  Level Anchorage Center
Fri 01:04:14 AM 64.7833 -155.2000 90° East 140 161 11,000  Level Anchorage Center
Fri 01:05:14 AM 64.7833 -155.1000 69° East 140 161 11,000  Level Anchorage Center
Fri 01:06:15 AM 64.8000 -155.0000 90° East 150 173 11,000  Level Anchorage Center
Fri 01:07:15 AM 64.8000 -154.9000 90° East 160 184 11,000  Level Anchorage Center
Fri 01:08:15 AM 64.8000 -154.8000 90° East 150 173 11,000  Level Anchorage Center
Fri 01:09:15 AM 64.8000 -154.7000 90° East 170 196 11,000  Level Anchorage Center
Fri 01:10:16 AM 64.8000 -154.6000 90° East 150 173 11,000  Level Anchorage Center
Fri 01:11:16 AM 64.8000 -154.5000 90° East 150 173 11,000  Level Anchorage Center
Fri 01:12:17 AM 64.8000 -154.4167 90° East 150 173 11,000  Level Anchorage Center
Fri 01:13:17 AM 64.8000 -154.3000 69° East 170 196 11,000  Level Anchorage Center
Fri 01:14:18 AM 64.8167 -154.2000 90° East 160 184 11,000  Level Anchorage Center
Fri 01:15:18 AM 64.8167 -154.1000 90° East 160 184 11,000  Level Anchorage Center
Fri 01:16:19 AM 64.8167 -153.9667 90° East 160 184 11,000  Level Anchorage Center
Fri 01:17:19 AM 64.8167 -153.8667 90° East 180 207 11,000  Level Anchorage Center
Fri 01:18:19 AM 64.8167 -153.7500 90° East 180 207 11,000  Level Anchorage Center
Fri 01:19:19 AM 64.8167 -153.6667 90° East 150 173 11,000  Level Anchorage Center
Fri 01:20:20 AM 64.8167 -153.5500 90° East 150 173 11,000  Level Anchorage Center
Fri 01:21:20 AM 64.8167 -153.4500 90° East 150 173 11,000  Level Anchorage Center
Fri 01:22:20 AM 64.8167 -153.3500 90° East 160 184 11,000  Level Anchorage Center
Fri 01:23:21 AM 64.8167 -153.2333 69° East 160 184 11,000  Level Anchorage Center
Fri 01:24:21 AM 64.8333 -153.1333 90° East 150 173 11,000  Level Anchorage Center
Fri 01:25:22 AM 64.8333 -153.0333 90° East 150 173 11,000  Level Anchorage Center
Fri 01:26:22 AM 64.8333 -152.9333 90° East 150 173 11,000  Level Anchorage Center
Fri 01:27:22 AM 64.8333 -152.8167 90° East 170 196 11,000 -100 Level Anchorage Center
Fri 01:28:22 AM 64.8333 -152.7167 90° East 160 184 10,800 -99 Descending Anchorage Center
Fri 01:29:23 AM 64.8333 -152.6167 90° East 150 173 10,800 99 Level Anchorage Center
Fri 01:30:23 AM 64.8333 -152.5167 90° East 180 207 11,000 150 Climbing Anchorage Center
Fri 01:31:23 AM 64.8333 -152.4167 90° East 180 207 11,100 50 Climbing Anchorage Center
Fri 01:32:24 AM 64.8333 -152.3167 90° East 150 173 11,100  Level Anchorage Center
Fri 01:33:24 AM 64.8333 -152.2167 90° East 150 173 11,100  Level Anchorage Center
Fri 01:34:24 AM 64.8333 -152.1167 90° East 150 173 11,100  Level Anchorage Center
Fri 01:35:25 AM 64.8333 -152.0167 69° East 160 184 11,100  Level Anchorage Center
Fri 01:36:25 AM 64.8500 -151.9167 111° Southeast 140 161 11,100  Level Anchorage Center
Fri 01:37:26 AM 64.8333 -151.8167 69° East 150 173 11,100  Level Anchorage Center
Fri 01:38:26 AM 64.8500 -151.7167 111° Southeast 160 184 11,100  Level Anchorage Center
Fri 01:39:26 AM 64.8333 -151.6167 71° East 170 196 11,100  Level Anchorage Center
Fri 01:40:27 AM 64.8500 -151.5000 111° Southeast 170 196 11,100  Level Anchorage Center
Fri 01:41:27 AM 64.8333 -151.4000 69° East 190 219 11,100  Level Anchorage Center
Fri 01:42:27 AM 64.8500 -151.3000 111° Southeast 160 184 11,100  Level Anchorage Center
Fri 01:43:28 AM 64.8333 -151.2000 90° East 150 173 11,100  Level Anchorage Center
Fri 01:44:28 AM 64.8333 -151.1167 69° East 160 184 11,100  Level Anchorage Center
Fri 01:45:28 AM 64.8500 -151.0167 90° East 150 173 11,100  Level Anchorage Center
Fri 01:46:29 AM 64.8500 -150.9167 90° East 150 173 11,100  Level Anchorage Center
Fri 01:47:29 AM 64.8500 -150.8167 111° Southeast 170 196 11,100  Level Anchorage Center
Fri 01:48:30 AM 64.8333 -150.7167 90° East 160 184 11,100  Level Anchorage Center
Fri 01:49:30 AM 64.8333 -150.6167 90° East 160 184 11,100  Level Anchorage Center
Fri 01:50:30 AM 64.8333 -150.5167 111° Southeast 160 184 11,100  Level Anchorage Center
Fri 01:51:31 AM 64.8167 -150.4167 90° East 140 161 11,100  Level Anchorage Center
Fri 01:52:31 AM 64.8167 -150.3167 90° East 160 184 11,100  Level Anchorage Center
Fri 01:53:31 AM 64.8167 -150.2167 111° Southeast 160 184 11,100  Level Anchorage Center
Fri 01:54:32 AM 64.8000 -150.1167 90° East 140 161 11,100 -50 Level Anchorage Center
Fri 01:55:32 AM 64.8000 -150.0167 90° East 150 173 11,000 -50 Descending Anchorage Center
Fri 01:56:32 AM 64.8000 -149.9167 111° Southeast 160 184 11,000  Level Anchorage Center
Fri 01:57:33 AM 64.7833 -149.8167 90° East 150 173 11,000  Level Anchorage Center
Fri 01:58:33 AM 64.7833 -149.7167 90° East 160 184 11,000  Level Anchorage Center
Fri 01:59:34 AM 64.7833 -149.6167 89° East 150 173 11,000  Level Anchorage Center
Fri 02:07:29 AM 64.7856 -148.7069 87° East  Level FlightAware Approximate
Fri 02:15:29 AM 64.8000 -147.8500 350° North  Level FlightAware Approximate
Fri 02:23:29 AM 65.1853 -148.0166 170° South  Level Estimated
Fri 02:31:29 AM 64.8000 -147.8500 170° South  Level FlightAware Approximate

Login

Don't have an account? Register now (free) for customized features, flight alerts, and more!